Time;durP1;ratioP1;P1;durP2;ratioP2;P2;SDS_P1;SDS_P2;PMS_P1;PMS_P2;Temp;Humidity;BMP_temperature;BMP_pressure;BME280_temperature;BME280_humidity;BME280_pressure;Samples;Min_cycle;Max_cycle;Signal;HPM_P1;HPM_P2
2023/04/23 00:01:12;;;;;;;9.25;5.85;;;;;;;10.77;59.79;99545.69;4460205;32;20491;-90
2023/04/23 00:03:41;;;;;;;9.98;6.80;;;;;;;10.58;59.78;99543.78;4487237;31;20124;-90
2023/04/23 00:06:09;;;;;;;10.60;6.10;;;;;;;10.57;59.78;99542.94;4475756;32;20126;-88
2023/04/23 00:08:34;;;;;;;12.07;5.10;;;;;;;10.68;59.79;99540.81;4460124;32;20138;-89
2023/04/23 00:11:00;;;;;;;13.80;5.90;;;;;;;10.77;59.80;99535.25;4472752;32;20176;-88
2023/04/23 00:13:26;;;;;;;8.07;5.32;;;;;;;10.79;59.79;99542.16;4472703;32;20132;-88
2023/04/23 00:15:51;;;;;;;13.90;5.72;;;;;;;10.44;59.77;99539.06;4472440;32;20124;-88
2023/04/23 00:18:17;;;;;;;12.75;6.07;;;;;;;10.43;59.77;99543.44;4487068;31;20096;-88
2023/04/23 00:20:43;;;;;;;8.30;5.30;;;;;;;10.39;59.78;99543.56;4472881;32;20378;-88
2023/04/23 00:23:09;;;;;;;12.40;7.15;;;;;;;10.52;59.77;99534.44;4485527;32;20155;-87
2023/04/23 00:25:34;;;;;;;13.60;6.50;;;;;;;10.53;59.77;99543.94;4487543;31;20157;-88
2023/04/23 00:27:59;;;;;;;12.95;6.20;;;;;;;10.50;59.78;99533.66;4487544;31;20434;-87
2023/04/23 00:30:25;;;;;;;12.13;6.00;;;;;;;10.45;59.77;99532.97;4487326;31;20100;-87
2023/04/23 00:32:50;;;;;;;13.05;6.18;;;;;;;10.23;59.76;99532.84;4473108;32;20100;-88
2023/04/23 00:35:17;;;;;;;8.80;6.03;;;;;;;10.11;59.76;99538.41;4460280;32;30727;-88
2023/04/23 00:37:42;;;;;;;9.43;5.90;;;;;;;10.07;59.74;99529.88;4474638;32;20197;-87
2023/04/23 00:40:08;;;;;;;10.73;6.87;;;;;;;10.12;59.76;99532.31;4474672;32;26458;-87
2023/04/23 00:42:34;;;;;;;12.23;6.43;;;;;;;9.99;59.74;99536.25;4461028;32;20100;-87
2023/04/23 00:45:00;;;;;;;8.73;5.93;;;;;;;9.92;59.74;99534.72;4472679;32;20468;-86
2023/04/23 00:47:27;;;;;;;9.82;5.97;;;;;;;9.78;59.73;99530.00;4472844;32;20138;-86
2023/04/23 00:49:54;;;;;;;10.55;6.28;;;;;;;9.83;59.73;99523.72;4472720;32;20084;-87
2023/04/23 00:52:20;;;;;;;11.12;6.40;;;;;;;9.81;59.74;99535.09;4485865;32;20080;-85
2023/04/23 00:54:45;;;;;;;9.82;6.10;;;;;;;9.84;59.73;99530.63;4485647;32;20164;-86
2023/04/23 00:57:10;;;;;;;10.52;6.53;;;;;;;9.64;59.73;99529.56;4472486;32;20528;-86
2023/04/23 00:59:36;;;;;;;14.85;6.82;;;;;;;9.61;59.72;99527.06;4486830;32;20342;-86
2023/04/23 01:02:01;;;;;;;14.65;6.40;;;;;;;9.71;59.73;99526.75;4473705;32;20131;-86
2023/04/23 01:04:28;;;;;;;9.75;5.72;;;;;;;9.91;59.74;99527.81;4459331;32;20124;-86
2023/04/23 01:06:54;;;;;;;10.80;6.35;;;;;;;9.70;59.72;99525.03;4486295;31;20139;-86
2023/04/23 01:09:19;;;;;;;10.60;5.75;;;;;;;9.71;59.73;99521.53;4459367;32;20110;-87
2023/04/23 01:11:44;;;;;;;10.30;6.62;;;;;;;9.57;59.72;99531.50;4485580;32;20361;-88
2023/04/23 01:14:10;;;;;;;10.15;5.68;;;;;;;9.58;59.72;99522.81;4472413;32;20455;-87
2023/04/23 01:16:37;;;;;;;9.18;6.15;;;;;;;9.61;59.73;99527.91;4485458;32;20144;-87
2023/04/23 01:19:05;;;;;;;9.57;5.55;;;;;;;9.40;59.71;99529.44;4485579;32;20524;-87
2023/04/23 01:21:31;;;;;;;11.95;6.60;;;;;;;9.36;59.71;99526.97;4488108;32;20113;-88
2023/04/23 01:23:56;;;;;;;10.70;6.12;;;;;;;9.34;59.71;99531.38;4459282;32;20464;-88
2023/04/23 01:26:22;;;;;;;10.70;5.47;;;;;;;9.31;59.70;99528.87;4485460;32;20104;-87
2023/04/23 01:28:48;;;;;;;11.82;6.18;;;;;;;9.12;59.70;99536.34;4472290;32;20400;-88
2023/04/23 01:31:13;;;;;;;10.50;6.25;;;;;;;9.17;59.70;99530.13;4471551;32;32456;-88
2023/04/23 01:33:39;;;;;;;11.90;6.03;;;;;;;9.17;59.70;99522.34;4459171;32;20148;-89
2023/04/23 01:36:05;;;;;;;10.07;5.80;;;;;;;9.18;59.69;99523.19;4472238;32;20140;-88
2023/04/23 01:38:30;;;;;;;12.85;6.03;;;;;;;9.18;59.69;99528.37;4472160;32;20084;-88
2023/04/23 01:40:56;;;;;;;9.70;5.80;;;;;;;9.15;59.70;99526.72;4472573;32;20142;-89
2023/04/23 01:43:21;;;;;;;9.88;6.20;;;;;;;9.19;59.70;99523.13;4478117;32;20152;-88
2023/04/23 01:45:47;;;;;;;9.18;5.07;;;;;;;9.14;59.70;99532.81;4477175;32;20144;-87
2023/04/23 01:48:12;;;;;;;9.82;6.30;;;;;;;9.24;59.70;99523.03;4488465;32;20130;-88
2023/04/23 01:50:37;;;;;;;10.25;5.80;;;;;;;9.18;59.70;99526.63;4472382;32;21892;-87
2023/04/23 01:53:03;;;;;;;11.02;5.90;;;;;;;9.12;59.69;99523.38;4472285;32;20132;-87
2023/04/23 01:55:28;;;;;;;8.90;5.70;;;;;;;9.15;59.70;99520.69;4484294;32;32955;-87
2023/04/23 01:57:54;;;;;;;11.73;6.82;;;;;;;9.22;59.70;99519.59;4486432;31;20148;-88
2023/04/23 02:00:20;;;;;;;11.40;6.15;;;;;;;9.15;59.70;99518.09;4472213;32;20141;-88
2023/04/23 02:02:45;;;;;;;10.80;6.32;;;;;;;9.04;59.69;99509.78;4485219;32;20167;-88
2023/04/23 02:05:17;;;;;;;11.65;6.70;;;;;;;9.14;59.69;99512.03;4485190;32;20440;-88
2023/04/23 02:07:42;;;;;;;9.95;6.12;;;;;;;9.06;59.69;99508.84;4485079;32;20088;-88
2023/04/23 02:10:08;;;;;;;11.12;5.70;;;;;;;8.93;59.69;99512.66;4472267;32;20115;-88
2023/04/23 02:12:35;;;;;;;10.98;6.18;;;;;;;8.89;59.69;99511.06;4485379;32;20498;-88
2023/04/23 02:15:00;;;;;;;10.43;6.12;;;;;;;8.85;59.69;99510.31;4472127;32;20637;-89
2023/04/23 02:17:27;;;;;;;9.32;5.80;;;;;;;8.82;59.68;99514.75;4473720;32;20096;-88
2023/04/23 02:19:54;;;;;;;9.50;5.62;;;;;;;8.86;59.68;99512.00;4485486;32;20104;-89
2023/04/23 02:22:21;;;;;;;15.98;6.72;;;;;;;8.99;59.68;99507.31;4485042;32;20108;-88
2023/04/23 02:24:46;;;;;;;12.27;6.50;;;;;;;8.82;59.68;99506.97;4471998;32;20134;-88
2023/04/23 02:27:11;;;;;;;14.18;6.95;;;;;;;8.79;59.67;99510.50;4485616;32;23473;-88
2023/04/23 02:29:37;;;;;;;11.40;5.78;;;;;;;8.91;59.69;99502.34;4471190;32;25003;-88
2023/04/23 02:32:03;;;;;;;13.05;6.57;;;;;;;8.66;59.67;99509.12;4471933;32;20201;-88
2023/04/23 02:34:28;;;;;;;12.25;7.07;;;;;;;8.75;59.67;99501.06;4471970;32;20160;-89
2023/04/23 02:36:54;;;;;;;9.52;5.75;;;;;;;8.80;59.67;99504.41;4471721;32;20100;-89
2023/04/23 02:39:19;;;;;;;10.88;5.90;;;;;;;8.83;59.68;99496.53;4474405;32;20145;-89
2023/04/23 02:41:45;;;;;;;11.88;6.15;;;;;;;8.74;59.66;99501.12;4458481;32;20100;-88
2023/04/23 02:44:10;;;;;;;8.60;6.15;;;;;;;8.67;59.67;99508.22;4484674;32;20122;-88
2023/04/23 02:46:36;;;;;;;12.73;6.43;;;;;;;8.66;59.67;99496.16;4458330;32;20148;-88
2023/04/23 02:49:02;;;;;;;13.98;6.15;;;;;;;8.58;59.66;99501.56;4471397;32;20100;-88
2023/04/23 02:51:27;;;;;;;9.20;5.85;;;;;;;8.57;59.66;99499.00;4484478;32;20135;-87
2023/04/23 02:53:53;;;;;;;10.13;6.53;;;;;;;8.61;59.66;99498.87;4485673;31;20530;-88
2023/04/23 02:56:19;;;;;;;13.05;6.10;;;;;;;8.49;59.66;99498.34;4484250;32;20096;-88
2023/04/23 02:58:45;;;;;;;14.07;6.40;;;;;;;8.60;59.67;99494.59;4486476;31;20111;-88
2023/04/23 03:01:10;;;;;;;14.25;6.80;;;;;;;8.47;59.66;99497.56;4472402;32;20369;-88
2023/04/23 03:03:35;;;;;;;11.63;6.45;;;;;;;8.46;59.66;99494.09;4484036;32;20104;-88
2023/04/23 03:06:01;;;;;;;13.27;6.43;;;;;;;8.47;59.65;99488.03;4485101;31;22422;-88
2023/04/23 03:08:27;;;;;;;12.93;6.82;;;;;;;8.49;59.66;99493.16;4458188;32;20101;-88
2023/04/23 03:10:52;;;;;;;11.40;6.07;;;;;;;8.60;59.67;99488.56;4458300;32;20108;-89
2023/04/23 03:13:18;;;;;;;12.98;6.62;;;;;;;8.41;59.65;99490.78;4484378;32;20108;-88
2023/04/23 03:15:43;;;;;;;9.98;6.20;;;;;;;8.53;59.67;99493.06;4470935;32;20136;-89
2023/04/23 03:18:08;;;;;;;12.90;6.10;;;;;;;8.49;59.66;99487.97;4484146;32;20127;-89
2023/04/23 03:20:37;;;;;;;11.57;6.85;;;;;;;8.45;59.66;99484.63;4484658;32;20158;-88
2023/04/23 03:23:05;;;;;;;9.88;5.85;;;;;;;8.34;59.65;99497.06;4472217;32;20122;-89
2023/04/23 03:25:31;;;;;;;10.07;5.82;;;;;;;8.44;59.66;99495.91;4473294;32;20815;-89
2023/04/23 03:27:57;;;;;;;10.70;5.55;;;;;;;8.36;59.64;99492.66;4486883;32;20115;-88
2023/04/23 03:30:22;;;;;;;12.25;6.03;;;;;;;8.37;59.65;99491.78;4474216;32;20144;-88
2023/04/23 03:32:49;;;;;;;11.40;5.95;;;;;;;8.42;59.65;99494.25;4470990;32;20080;-87
2023/04/23 03:35:14;;;;;;;10.90;6.32;;;;;;;8.43;59.65;99494.19;4482579;32;20452;-86
2023/04/23 03:37:40;;;;;;;9.52;6.10;;;;;;;8.61;59.66;99500.63;4485468;32;27777;-86
2023/04/23 03:40:08;;;;;;;9.63;5.97;;;;;;;8.61;59.66;99501.47;4487630;31;20160;-86
2023/04/23 03:42:34;;;;;;;16.87;6.68;;;;;;;8.54;59.66;99499.09;4486374;32;20455;-86
2023/04/23 03:44:59;;;;;;;12.05;6.22;;;;;;;8.50;59.66;99493.13;4485688;32;24264;-86
2023/04/23 03:47:25;;;;;;;10.45;5.97;;;;;;;8.52;59.67;99499.16;4473159;32;20080;-86
2023/04/23 03:49:51;;;;;;;8.60;5.30;;;;;;;8.45;59.66;99499.34;4472981;32;20096;-86
2023/04/23 03:52:16;;;;;;;10.25;5.75;;;;;;;8.44;59.65;99495.03;4472871;32;20165;-86
2023/04/23 03:54:42;;;;;;;12.50;6.30;;;;;;;8.41;59.65;99493.38;4473709;32;20092;-87
2023/04/23 03:57:08;;;;;;;13.20;5.87;;;;;;;8.43;59.65;99494.19;4461000;32;21939;-87
2023/04/23 03:59:33;;;;;;;9.98;5.45;;;;;;;8.58;59.66;99495.53;4486115;32;20140;-88
2023/04/23 04:01:59;;;;;;;9.73;6.12;;;;;;;8.43;59.65;99503.72;4487468;31;20432;-87
2023/04/23 04:04:24;;;;;;;9.95;5.65;;;;;;;8.34;59.65;99496.19;4487249;31;20482;-88
2023/04/23 04:06:50;;;;;;;10.45;6.45;;;;;;;8.36;59.64;99490.06;4473070;32;20174;-87
2023/04/23 04:09:15;;;;;;;11.63;6.05;;;;;;;8.34;59.65;99504.84;4472986;32;20108;-88
2023/04/23 04:11:41;;;;;;;9.10;5.62;;;;;;;8.70;59.67;99500.34;4472952;32;20167;-87
2023/04/23 04:14:06;;;;;;;9.35;5.72;;;;;;;8.58;59.66;99508.50;4485882;32;20129;-87
2023/04/23 04:16:32;;;;;;;13.20;6.82;;;;;;;8.68;59.67;99503.88;4485999;32;24215;-88
2023/04/23 04:18:57;;;;;;;11.98;5.93;;;;;;;8.60;59.67;99509.31;4458619;32;37600;-88
2023/04/23 04:21:22;;;;;;;14.10;6.30;;;;;;;8.69;59.67;99506.44;4472542;32;20107;-87
2023/04/23 04:23:48;;;;;;;13.55;5.82;;;;;;;8.70;59.67;99508.13;4486459;32;26750;-88
2023/04/23 04:26:14;;;;;;;10.02;5.47;;;;;;;8.82;59.68;99515.59;4472828;32;20499;-87
2023/04/23 04:28:39;;;;;;;12.02;6.25;;;;;;;8.92;59.68;99509.22;4472818;32;20179;-88
2023/04/23 04:31:05;;;;;;;12.25;6.22;;;;;;;8.93;59.68;99513.53;4459814;32;20135;-88
2023/04/23 04:33:34;;;;;;;8.50;5.00;;;;;;;8.89;59.69;99511.06;4472827;32;20088;-88
2023/04/23 04:36:00;;;;;;;11.48;5.25;;;;;;;9.12;59.70;99516.44;4475409;32;20076;-89
2023/04/23 04:38:25;;;;;;;12.18;6.30;;;;;;;9.25;59.70;99516.94;4472708;32;20112;-89
2023/04/23 04:40:54;;;;;;;8.48;5.72;;;;;;;9.36;59.71;99512.25;4487045;31;20106;-88
2023/04/23 04:43:19;;;;;;;11.75;5.50;;;;;;;9.39;59.70;99506.94;4458653;32;20092;-88
2023/04/23 04:45:45;;;;;;;14.02;5.80;;;;;;;9.58;59.72;99511.56;4459412;32;20147;-88
2023/04/23 04:48:10;;;;;;;10.95;5.85;;;;;;;9.72;59.73;99514.59;4484997;32;20152;-88
2023/04/23 04:50:35;;;;;;;12.00;6.47;;;;;;;9.96;59.74;99510.34;4485415;32;20183;-89
2023/04/23 04:53:02;;;;;;;7.85;5.40;;;;;;;10.00;59.74;99509.34;4486186;32;20818;-88
2023/04/23 04:55:27;;;;;;;12.60;6.03;;;;;;;10.24;59.75;99512.91;4459633;32;20135;-88
2023/04/23 04:57:52;;;;;;;9.45;5.70;;;;;;;10.30;59.75;99518.72;4472258;32;20164;-89
2023/04/23 05:00:23;;;;;;;9.75;5.82;;;;;;;10.56;59.77;99514.34;4459565;32;21188;-89
2023/04/23 05:02:51;;;;;;;11.15;5.50;;;;;;;10.59;59.77;99515.09;4473374;32;20353;-87
2023/04/23 05:05:23;;;;;;;10.00;6.15;;;;;;;10.72;59.78;99516.38;4487821;31;20095;-89
2023/04/23 05:07:49;;;;;;;10.32;5.85;;;;;;;10.99;59.79;99516.25;4473344;32;20113;-88
2023/04/23 05:10:14;;;;;;;10.55;6.20;;;;;;;11.18;59.80;99519.03;4461041;32;20108;-89
2023/04/23 05:12:41;;;;;;;8.43;5.30;;;;;;;11.41;59.82;99510.31;4462083;32;20157;-89
2023/04/23 05:15:08;;;;;;;10.75;5.28;;;;;;;11.72;59.84;99523.81;4485407;32;20468;-89
2023/04/23 05:17:34;;;;;;;9.38;5.97;;;;;;;11.91;59.85;99509.16;4472145;32;20138;-89
2023/04/23 05:19:59;;;;;;;11.43;6.93;;;;;;;11.95;59.85;99512.47;4486756;32;20477;-90
2023/04/23 05:22:25;;;;;;;10.18;6.10;;;;;;;12.19;59.86;99510.63;4472578;32;20185;-90
2023/04/23 05:24:51;;;;;;;11.10;5.97;;;;;;;12.35;59.87;99510.81;4473172;32;20428;-92
2023/04/23 05:27:17;;;;;;;11.45;6.68;;;;;;;12.68;59.89;99505.87;4486372;32;20136;-91
2023/04/23 05:29:42;;;;;;;16.45;8.07;;;;;;;12.73;59.89;99507.34;4474884;32;20150;-91
2023/04/23 05:32:08;;;;;;;15.10;8.02;;;;;;;12.88;59.91;99501.44;4488359;32;20099;-90
2023/04/23 05:34:33;;;;;;;14.90;8.23;;;;;;;13.13;59.92;99500.31;4485729;32;20748;-90
2023/04/23 05:36:59;;;;;;;12.05;7.97;;;;;;;13.43;59.93;99503.28;4486100;32;25331;-90
2023/04/23 05:39:25;;;;;;;14.15;7.55;;;;;;;13.66;59.94;99510.03;4473240;32;20140;-89
2023/04/23 05:41:50;;;;;;;14.35;7.90;;;;;;;13.85;59.95;99504.75;4472558;32;20330;-90
2023/04/23 05:44:15;;;;;;;14.27;7.75;;;;;;;13.89;59.96;99496.69;4472257;32;20163;-90
2023/04/23 05:46:41;;;;;;;11.23;7.78;;;;;;;14.17;59.96;99498.75;4472512;32;20459;-91
2023/04/23 05:49:06;;;;;;;14.30;8.15;;;;;;;14.19;59.97;99499.53;4459328;32;20173;-89
2023/04/23 05:51:31;;;;;;;14.43;8.82;;;;;;;14.45;59.99;99503.50;4474650;32;20131;-89
2023/04/23 05:53:57;;;;;;;14.50;8.32;;;;;;;14.56;59.99;99502.91;4458678;32;22742;-89
2023/04/23 05:56:22;;;;;;;14.07;8.90;;;;;;;14.77;59.99;99500.94;4472405;32;20449;-90
2023/04/23 05:58:49;;;;;;;13.57;8.27;;;;;;;14.99;60.01;99498.87;4471832;32;20484;-90
2023/04/23 06:01:14;;;;;;;15.65;8.52;;;;;;;15.14;60.02;99502.41;4486363;31;20143;-89
2023/04/23 06:03:44;;;;;;;16.58;8.32;;;;;;;15.17;60.03;99500.50;4485283;32;20097;-89
2023/04/23 06:06:11;;;;;;;12.05;8.48;;;;;;;15.19;60.03;99503.03;4472528;32;20537;-89
2023/04/23 06:08:36;;;;;;;13.05;8.73;;;;;;;15.35;60.03;99496.84;4485045;32;20165;-89
2023/04/23 06:11:01;;;;;;;11.38;7.93;;;;;;;15.34;60.04;99512.66;4485269;32;20143;-90
2023/04/23 06:13:29;;;;;;;13.38;7.60;;;;;;;15.45;60.03;99499.81;4474568;32;20077;-89
2023/04/23 06:15:55;;;;;;;13.77;8.07;;;;;;;15.79;60.06;99503.19;4472106;32;20100;-89
2023/04/23 06:18:20;;;;;;;17.20;7.97;;;;;;;15.88;60.07;99507.91;4471851;32;20108;-89
2023/04/23 06:20:47;;;;;;;12.20;8.50;;;;;;;15.95;60.07;99510.09;4472044;32;20126;-89
2023/04/23 06:23:12;;;;;;;15.23;7.80;;;;;;;16.19;60.08;99501.72;4472117;32;20152;-89
2023/04/23 06:25:38;;;;;;;14.68;8.15;;;;;;;16.25;60.08;99506.59;4458353;32;25453;-90
2023/04/23 06:28:03;;;;;;;13.27;7.53;;;;;;;16.53;60.09;99500.53;4458333;32;23595;-89
2023/04/23 06:30:28;;;;;;;14.00;7.60;;;;;;;16.55;60.10;99503.91;4471710;32;20107;-89
2023/04/23 06:32:54;;;;;;;13.52;7.70;;;;;;;16.86;60.11;99498.53;4462013;32;20136;-89
2023/04/23 06:35:19;;;;;;;17.08;7.97;;;;;;;16.98;60.12;99504.78;4483455;32;20133;-88
2023/04/23 06:37:45;;;;;;;12.37;7.25;;;;;;;17.22;60.13;99499.78;4500961;31;20089;-89
2023/04/23 06:40:11;;;;;;;13.98;8.35;;;;;;;17.50;60.15;99499.72;4499019;32;20505;-86
2023/04/23 06:42:37;;;;;;;12.75;6.90;;;;;;;17.69;60.15;99499.41;4483436;32;20152;-86
2023/04/23 06:45:03;;;;;;;14.32;7.15;;;;;;;17.79;60.17;99497.03;4481178;32;20104;-88
2023/04/23 06:47:29;;;;;;;11.45;7.53;;;;;;;17.89;60.17;99492.84;4459868;32;20421;-88
2023/04/23 06:49:56;;;;;;;13.20;7.25;;;;;;;18.03;60.18;99494.56;4471804;32;20110;-86
2023/04/23 06:52:21;;;;;;;11.43;6.43;;;;;;;18.25;60.19;99488.69;4471719;32;20148;-90
2023/04/23 06:54:46;;;;;;;13.13;6.90;;;;;;;18.49;60.20;99497.56;4471376;32;20104;-89
2023/04/23 06:57:12;;;;;;;10.15;6.70;;;;;;;18.72;60.21;99495.19;4485895;31;20132;-89
2023/04/23 06:59:37;;;;;;;10.70;6.68;;;;;;;18.76;60.21;99492.22;4471263;32;24066;-89
2023/04/23 07:02:03;;;;;;;12.27;6.40;;;;;;;18.93;60.23;99485.75;4470881;32;25975;-89
2023/04/23 07:04:28;;;;;;;8.50;6.20;;;;;;;18.97;60.22;99488.06;4470962;32;29553;-89
2023/04/23 07:06:54;;;;;;;9.57;6.10;;;;;;;19.25;60.24;99481.66;4474131;32;20154;-88
2023/04/23 07:09:22;;;;;;;9.25;5.90;;;;;;;19.37;60.24;99482.56;4487610;32;20347;-89
2023/04/23 07:11:47;;;;;;;10.30;5.68;;;;;;;19.37;60.25;99476.44;4460764;32;20079;-88
2023/04/23 07:14:12;;;;;;;12.70;6.72;;;;;;;19.62;60.27;99477.19;4459341;32;31338;-89
2023/04/23 07:16:38;;;;;;;9.13;6.05;;;;;;;19.73;60.27;99470.31;4459297;32;27220;-89
2023/04/23 07:19:04;;;;;;;11.30;6.30;;;;;;;19.95;60.28;99472.19;4488265;31;20161;-89
2023/04/23 07:21:31;;;;;;;12.90;5.82;;;;;;;19.91;60.29;99469.78;4486576;32;20117;-89
2023/04/23 07:24:05;;;;;;;12.82;6.53;;;;;;;20.08;60.29;99468.50;4486693;32;20130;-89
2023/04/23 07:26:31;;;;;;;9.90;6.75;;;;;;;20.10;60.29;99466.56;4474266;32;20597;-89
2023/04/23 07:28:56;;;;;;;10.63;6.30;;;;;;;20.24;60.30;99471.66;4489209;32;20088;-89
2023/04/23 07:31:22;;;;;;;12.60;6.60;;;;;;;20.35;60.30;99468.22;4459785;32;25138;-89
2023/04/23 07:33:48;;;;;;;12.93;7.03;;;;;;;20.30;60.30;99467.69;4473288;32;20783;-89
2023/04/23 07:36:13;;;;;;;12.93;6.40;;;;;;;20.40;60.31;99470.50;4486368;32;20096;-89
2023/04/23 07:38:39;;;;;;;11.35;6.37;;;;;;;20.55;60.32;99471.97;4459286;32;30517;-90
2023/04/23 07:41:04;;;;;;;12.90;5.93;;;;;;;20.76;60.32;99466.81;4459653;32;20092;-87
2023/04/23 07:43:31;;;;;;;10.35;5.80;;;;;;;20.71;60.32;99464.53;4472610;32;20100;-88
2023/04/23 07:45:57;;;;;;;8.88;5.37;;;;;;;20.82;60.32;99469.84;4473143;32;20220;-88
2023/04/23 07:48:22;;;;;;;7.32;4.93;;;;;;;21.06;60.34;99461.78;4487543;32;20097;-89
2023/04/23 07:50:47;;;;;;;8.27;4.55;;;;;;;21.05;60.34;99460.06;4486711;32;20118;-90
2023/04/23 07:53:13;;;;;;;7.97;4.53;;;;;;;21.28;60.35;99468.00;4472564;32;20172;-89
2023/04/23 07:55:38;;;;;;;10.68;5.20;;;;;;;21.45;60.36;99460.37;4485497;32;20092;-90
2023/04/23 07:58:04;;;;;;;7.68;4.70;;;;;;;21.53;60.37;99466.84;4472467;32;20163;-89
2023/04/23 08:00:29;;;;;;;8.77;4.87;;;;;;;21.67;60.37;99458.63;4472583;32;20096;-89
2023/04/23 08:02:55;;;;;;;8.20;4.72;;;;;;;21.70;60.37;99463.66;4484841;32;27209;-90
2023/04/23 08:05:20;;;;;;;13.85;5.28;;;;;;;21.68;60.38;99461.13;4485740;32;20117;-88
2023/04/23 08:07:46;;;;;;;9.80;5.10;;;;;;;21.82;60.39;99459.16;4485712;32;20441;-90
2023/04/23 08:10:11;;;;;;;9.70;4.82;;;;;;;21.92;60.38;99454.75;4472548;32;23287;-89
2023/04/23 08:12:37;;;;;;;10.27;4.50;;;;;;;22.10;60.41;99452.44;4459206;32;20100;-89
2023/04/23 08:15:02;;;;;;;9.45;5.72;;;;;;;22.13;60.40;99454.81;4458910;32;20161;-88
2023/04/23 08:17:28;;;;;;;7.95;4.47;;;;;;;22.16;60.41;99460.69;4486481;32;20178;-89
2023/04/23 08:19:53;;;;;;;12.55;5.03;;;;;;;22.39;60.41;99452.59;4472766;32;20084;-89
2023/04/23 08:22:19;;;;;;;7.62;4.10;;;;;;;22.64;60.43;99453.00;4472962;32;20145;-89
2023/04/23 08:24:47;;;;;;;7.53;4.75;;;;;;;22.68;60.42;99449.09;4459634;32;20139;-86
2023/04/23 08:27:12;;;;;;;8.32;4.35;;;;;;;22.88;60.44;99455.38;4472258;32;20548;-88
2023/04/23 08:29:38;;;;;;;9.45;4.80;;;;;;;23.02;60.44;99448.00;4458739;32;20219;-87
2023/04/23 08:32:03;;;;;;;9.88;5.30;;;;;;;23.18;60.46;99440.34;4471639;32;20108;-88
2023/04/23 08:34:29;;;;;;;9.77;5.35;;;;;;;23.30;60.46;99441.09;4486002;31;20140;-88
2023/04/23 08:36:54;;;;;;;8.88;5.55;;;;;;;23.51;60.47;99437.34;4484398;32;20100;-88
2023/04/23 08:39:20;;;;;;;8.18;5.50;;;;;;;23.83;60.49;99441.56;4486182;31;20136;-89
2023/04/23 08:41:48;;;;;;;8.98;5.87;;;;;;;23.94;60.49;99440.59;4472366;32;20119;-88
2023/04/23 08:44:18;;;;;;;12.55;6.30;;;;;;;24.04;60.50;99436.91;4472828;32;20104;-88
2023/04/23 08:46:44;;;;;;;8.10;5.93;;;;;;;24.10;60.50;99435.50;4487015;32;20159;-90
2023/04/23 08:49:12;;;;;;;9.73;5.93;;;;;;;24.21;60.52;99427.38;4485788;32;20111;-91
2023/04/23 08:51:38;;;;;;;7.82;5.43;;;;;;;24.19;60.50;99427.53;4473061;32;20439;-89
2023/04/23 08:54:04;;;;;;;9.38;5.78;;;;;;;24.40;60.52;99435.34;4472595;32;20123;-90
2023/04/23 08:56:30;;;;;;;11.05;6.93;;;;;;;24.29;60.52;99432.00;4485557;32;20089;-89
2023/04/23 08:58:55;;;;;;;8.32;5.12;;;;;;;24.43;60.53;99428.91;4486721;32;20080;-89
2023/04/23 09:01:21;;;;;;;12.20;4.72;;;;;;;24.70;60.54;99423.59;4472055;32;31835;-89
2023/04/23 09:03:46;;;;;;;8.95;5.00;;;;;;;24.77;60.54;99423.84;4471535;32;32539;-89
2023/04/23 09:06:12;;;;;;;12.48;6.35;;;;;;;24.81;60.54;99419.91;4475340;32;20514;-89
2023/04/23 09:08:37;;;;;;;11.73;5.87;;;;;;;25.02;60.55;99425.00;4485211;32;20161;-89
2023/04/23 09:11:03;;;;;;;11.35;5.28;;;;;;;25.00;60.56;99413.66;4485061;32;20100;-89
2023/04/23 09:13:30;;;;;;;11.73;5.60;;;;;;;25.01;60.55;99412.69;4484813;32;20100;-88
2023/04/23 09:15:55;;;;;;;7.70;5.47;;;;;;;25.03;60.56;99408.88;4472393;32;20144;-89
2023/04/23 09:18:21;;;;;;;7.22;4.60;;;;;;;25.03;60.56;99405.38;4471808;32;20118;-89
2023/04/23 09:20:46;;;;;;;10.05;5.25;;;;;;;25.36;60.57;99406.56;4458886;32;20154;-89
2023/04/23 09:23:15;;;;;;;7.37;4.60;;;;;;;25.48;60.58;99401.84;4485384;32;20104;-88
2023/04/23 09:25:40;;;;;;;5.93;4.10;;;;;;;25.56;60.59;99397.44;4488892;32;20065;-88
2023/04/23 09:28:06;;;;;;;6.43;3.97;;;;;;;25.63;60.59;99400.31;4474029;32;20111;-88
2023/04/23 09:30:36;;;;;;;6.47;4.05;;;;;;;25.66;60.59;99398.19;4488134;32;20088;-87
2023/04/23 09:33:01;;;;;;;;;;;;;;;25.77;60.58;99401.63;4487753;32;20159;-85
2023/04/23 09:35:27;;;;;;;5.67;4.10;;;;;;;25.73;60.59;99403.75;4496785;32;20283;-87
2023/04/23 09:37:52;;;;;;;7.25;4.25;;;;;;;25.84;60.61;99402.69;4461676;32;20106;-87
2023/04/23 09:40:21;;;;;;;8.95;3.50;;;;;;;25.86;60.60;99401.53;4490046;32;20096;-86
2023/04/23 09:42:48;;;;;;;6.57;4.15;;;;;;;25.89;60.60;99403.06;4484875;32;20176;-88
2023/04/23 09:45:14;;;;;;;11.93;4.43;;;;;;;26.11;60.62;99402.56;4472241;32;20118;-88
2023/04/23 09:47:50;;;;;;;8.65;5.10;;;;;;;26.12;60.61;99401.56;4472011;32;20731;-88
2023/04/23 09:50:16;;;;;;;6.82;4.18;;;;;;;26.29;60.62;99400.69;4485115;32;20097;-87
2023/04/23 09:52:41;;;;;;;11.15;3.90;;;;;;;26.38;60.62;99398.06;4485201;32;20156;-88
2023/04/23 09:55:07;;;;;;;12.32;3.60;;;;;;;26.41;60.63;99393.25;4458810;32;20127;-87
2023/04/23 09:57:37;;;;;;;8.45;3.72;;;;;;;26.43;60.63;99383.25;4486434;31;20437;-88
2023/04/23 10:00:17;;;;;;;7.70;3.65;;;;;;;26.33;60.63;99387.84;4471952;32;20747;-87
2023/04/23 10:02:49;;;;;;;7.20;3.35;;;;;;;26.45;60.63;99383.94;4474872;32;20160;-88
2023/04/23 10:05:19;;;;;;;4.18;3.28;;;;;;;26.49;60.63;99382.59;4486364;31;20118;-88
2023/04/23 10:07:50;;;;;;;6.28;3.28;;;;;;;26.55;60.64;99378.47;4485046;32;20150;-88
2023/04/23 10:10:16;;;;;;;6.62;3.47;;;;;;;26.63;60.65;99373.16;4484934;32;20478;-88
2023/04/23 10:12:42;;;;;;;6.18;3.55;;;;;;;26.52;60.64;99376.97;4484900;32;20107;-87
2023/04/23 10:15:08;;;;;;;7.20;3.65;;;;;;;26.66;60.64;99374.69;4458719;32;20382;-88
2023/04/23 10:17:35;;;;;;;9.93;4.00;;;;;;;26.74;60.65;99374.72;4458505;32;20093;-88
2023/04/23 10:20:00;;;;;;;5.87;4.22;;;;;;;26.70;60.64;99370.69;4485232;32;20108;-88
2023/04/23 10:22:27;;;;;;;5.78;3.50;;;;;;;26.87;60.66;99351.06;4487351;32;20250;-89
2023/04/23 10:24:54;;;;;;;6.72;3.47;;;;;;;26.80;60.65;99350.03;4471997;32;20473;-88
2023/04/23 10:27:20;;;;;;;7.37;3.20;;;;;;;26.75;60.64;99361.22;4471929;32;20093;-89
2023/04/23 10:29:45;;;;;;;4.68;2.72;;;;;;;26.98;60.66;99360.63;4458586;32;20129;-89
2023/04/23 10:32:11;;;;;;;5.15;2.97;;;;;;;27.13;60.67;99351.81;4483328;32;20104;-88
2023/04/23 10:34:36;;;;;;;7.35;2.65;;;;;;;27.15;60.67;99352.47;4484249;31;20110;-88
2023/04/23 10:37:03;;;;;;;5.97;2.90;;;;;;;27.24;60.67;99350.69;4471388;32;20136;-89
2023/04/23 10:39:31;;;;;;;4.47;2.65;;;;;;;27.31;60.67;99350.84;4458733;32;20130;-87
2023/04/23 10:41:56;;;;;;;4.90;2.40;;;;;;;27.45;60.68;99340.34;4485987;32;20116;-87
2023/04/23 10:44:22;;;;;;;5.32;3.03;;;;;;;27.51;60.69;99336.97;4470028;31;20153;-86
2023/04/23 10:46:57;;;;;;;3.92;2.70;;;;;;;27.43;60.68;99336.13;4474499;31;30333;-87
2023/04/23 10:49:23;;;;;;;5.68;2.97;;;;;;;27.24;60.67;99329.28;4485531;31;20060;-89
2023/04/23 10:51:49;;;;;;;4.53;2.85;;;;;;;26.96;60.66;99336.72;4484589;31;20112;-89
2023/04/23 10:54:15;;;;;;;5.22;2.60;;;;;;;27.07;60.66;99336.44;4469643;31;20192;-88
2023/04/23 10:56:40;;;;;;;3.50;2.40;;;;;;;27.05;60.67;99319.75;4464109;31;20130;-88
2023/04/23 10:59:22;;;;;;;4.50;2.87;;;;;;;27.10;60.67;99330.78;4484492;31;20103;-88
2023/04/23 11:01:48;;;;;;;3.22;2.67;;;;;;;27.05;60.66;99333.09;4483153;32;20150;-88
2023/04/23 11:04:24;;;;;;;5.57;2.53;;;;;;;27.14;60.67;99337.44;4482784;32;20089;-86
2023/04/23 11:06:51;;;;;;;3.78;2.90;;;;;;;27.23;60.67;99334.81;4484635;31;20084;-89
2023/04/23 11:09:35;;;;;;;4.40;2.20;;;;;;;27.19;60.68;99340.47;4470071;32;20477;-88
2023/04/23 11:12:01;;;;;;;4.22;2.35;;;;;;;27.06;60.67;99334.78;4482439;32;20092;-88
2023/04/23 11:14:36;;;;;;;8.43;3.42;;;;;;;27.02;60.67;99327.25;4482615;32;20150;-88
2023/04/23 11:17:05;;;;;;;4.32;2.12;;;;;;;26.90;60.66;99334.69;4470056;32;20138;-87
2023/04/23 11:19:34;;;;;;;4.82;2.05;;;;;;;27.10;60.67;99336.13;4497529;31;20121;-88
2023/04/23 11:22:11;;;;;;;2.75;2.12;;;;;;;27.11;60.67;99340.47;4482665;32;20112;-89
2023/04/23 11:24:41;;;;;;;3.25;2.30;;;;;;;27.20;60.68;99325.25;4468136;31;20088;-88
2023/04/23 11:27:13;;;;;;;;;;;;;;;27.20;60.68;99331.44;4484620;31;20097;-89